Time;durP1;ratioP1;P1;durP2;ratioP2;P2;SDS_P1;SDS_P2;PMS_P1;PMS_P2;Temp;Humidity;BMP_temperature;BMP_pressure;BME280_temperature;BME280_humidity;BME280_pressure;Samples;Min_cycle;Max_cycle;Signal;HPM_P1;HPM_P2
2023/05/03 00:02:12;;;;;;;0.00;0.00;;;17.00;96.70;;;;;;5112123;27;20036;-74
2023/05/03 00:04:45;;;;;;;0.00;0.00;;;17.00;96.70;;;;;;5113323;27;20066;-74
2023/05/03 00:07:13;;;;;;;0.40;0.00;;;17.00;96.70;;;;;;5112526;27;20042;-74
2023/05/03 00:09:41;;;;;;;0.28;0.00;;;17.00;96.70;;;;;;5100930;27;20035;-74
2023/05/03 00:12:09;;;;;;;1.85;0.60;;;17.00;96.70;;;;;;5117030;27;20794;-74
2023/05/03 00:14:56;;;;;;;0.10;0.03;;;17.00;96.70;;;;;;5085014;27;20054;-74
2023/05/03 00:17:24;;;;;;;2.53;0.13;;;17.00;96.70;;;;;;5097105;27;20047;-74
2023/05/03 00:19:55;;;;;;;0.00;0.00;;;17.00;96.70;;;;;;5082050;27;20159;-73
2023/05/03 00:26:11;;;;;;;0.05;0.03;;;17.00;96.70;;;;;;5094300;27;20046;-74
2023/05/03 00:28:41;;;;;;;0.32;0.00;;;17.00;96.70;;;;;;5110862;27;20123;-75
2023/05/03 00:31:10;;;;;;;1.15;0.10;;;17.00;96.70;;;;;;5100281;27;20035;-73
2023/05/03 00:33:38;;;;;;;0.25;0.00;;;17.00;96.70;;;;;;5089447;27;20067;-74
2023/05/03 00:39:55;;;;;;;0.00;0.00;;;16.90;96.70;;;;;;5092420;27;20063;-73
2023/05/03 00:42:24;;;;;;;0.22;0.00;;;17.00;96.70;;;;;;5111171;27;20031;-74
2023/05/03 00:44:54;;;;;;;0.00;0.00;;;17.00;96.70;;;;;;5115934;27;20480;-74
2023/05/03 00:47:23;;;;;;;0.00;0.00;;;17.00;96.70;;;;;;5113368;27;20455;-74
2023/05/03 00:49:52;;;;;;;0.17;0.00;;;17.00;96.70;;;;;;5106833;27;20520;-73
2023/05/03 00:52:20;;;;;;;0.00;0.00;;;17.00;96.70;;;;;;5109438;27;20051;-73
2023/05/03 00:54:49;;;;;;;0.00;0.00;;;17.00;96.70;;;;;;5095381;27;20556;-74
2023/05/03 00:57:21;;;;;;;0.45;0.00;;;17.00;96.70;;;;;;5098095;27;20042;-73
2023/05/03 00:59:52;;;;;;;0.30;0.00;;;17.00;96.70;;;;;;5095831;27;20123;-73
2023/05/03 01:02:21;;;;;;;0.52;0.00;;;17.00;96.70;;;;;;5113179;27;20124;-73
2023/05/03 01:04:50;;;;;;;0.00;0.00;;;17.00;96.70;;;;;;5112289;27;20043;-73
2023/05/03 01:07:29;;;;;;;0.00;0.00;;;16.90;96.70;;;;;;5093380;27;20177;-73
2023/05/03 01:10:03;;;;;;;0.10;0.00;;;16.90;96.70;;;;;;5111007;27;20040;-74
2023/05/03 01:12:47;;;;;;;0.63;0.00;;;16.90;96.70;;;;;;5094444;27;20043;-75
2023/05/03 02:14:15;;;;;;;0.47;0.10;;;16.80;96.70;;;;;;5086831;27;20072;-75
2023/05/03 02:16:43;;;;;;;0.00;0.00;;;16.70;96.70;;;;;;5096195;27;20039;-74
2023/05/03 02:19:13;;;;;;;0.68;0.00;;;16.80;96.70;;;;;;5093644;27;20145;-74
2023/05/03 02:21:42;;;;;;;0.00;0.00;;;16.80;96.70;;;;;;5088861;28;20039;-74
2023/05/03 02:53:14;;;;;;;0.17;0.00;;;16.60;96.70;;;;;;5096832;28;20510;-75
2023/05/03 02:55:43;;;;;;;0.00;0.00;;;16.70;96.70;;;;;;5091515;27;20049;-74
2023/05/03 02:58:14;;;;;;;0.75;0.00;;;16.70;96.70;;;;;;5088929;28;21340;-75
2023/05/03 03:00:44;;;;;;;0.00;0.00;;;16.70;96.70;;;;;;5095488;28;20671;-75
2023/05/03 03:37:12;;;;;;;0.15;0.00;;;16.70;96.70;;;;;;5096539;27;20271;-74
2023/05/03 03:39:42;;;;;;;0.00;0.00;;;16.70;96.70;;;;;;5109025;27;20997;-74
2023/05/03 03:42:12;;;;;;;0.00;0.00;;;16.70;96.70;;;;;;5099716;27;20035;-75
2023/05/03 03:44:48;;;;;;;0.00;0.00;;;16.70;96.70;;;;;;5099119;27;20567;-74
2023/05/03 03:47:30;;;;;;;0.25;0.00;;;16.70;96.70;;;;;;5087989;27;20733;-74
2023/05/03 03:50:10;;;;;;;0.00;0.00;;;16.60;96.70;;;;;;5085093;27;20581;-74
2023/05/03 03:53:02;;;;;;;0.22;0.00;;;16.60;96.70;;;;;;5124328;27;20128;-74
2023/05/03 03:55:45;;;;;;;0.73;0.00;;;16.60;96.70;;;;;;5099153;27;20733;-74
2023/05/03 03:58:16;;;;;;;0.00;0.00;;;16.60;96.70;;;;;;5096691;27;20046;-74
2023/05/03 04:00:46;;;;;;;0.00;0.00;;;16.70;96.70;;;;;;5081863;27;20052;-73
2023/05/03 04:03:18;;;;;;;0.00;0.00;;;16.60;96.70;;;;;;5100656;27;20046;-74
2023/05/03 04:05:51;;;;;;;0.00;0.00;;;16.60;96.70;;;;;;5099538;27;20136;-74
2023/05/03 04:08:23;;;;;;;0.10;0.00;;;16.60;96.70;;;;;;5096580;27;20035;-76
2023/05/03 04:10:52;;;;;;;0.00;0.00;;;16.60;96.70;;;;;;5094307;27;20116;-74
2023/05/03 04:13:22;;;;;;;0.00;0.00;;;16.70;96.70;;;;;;5097632;27;20059;-74
2023/05/03 04:15:55;;;;;;;0.10;0.00;;;16.70;96.70;;;;;;5093385;27;20067;-74
2023/05/03 04:18:26;;;;;;;0.00;0.00;;;16.70;96.70;;;;;;5078909;27;20082;-74
2023/05/03 04:20:59;;;;;;;0.10;0.00;;;16.70;96.70;;;;;;5083180;27;20042;-74
2023/05/03 04:23:30;;;;;;;0.00;0.00;;;16.80;96.70;;;;;;5094752;27;20043;-74
2023/05/03 04:26:01;;;;;;;0.13;0.00;;;16.80;96.70;;;;;;5128890;27;20393;-74
2023/05/03 04:28:34;;;;;;;0.00;0.00;;;16.80;96.70;;;;;;5108324;27;20039;-74
2023/05/03 04:31:04;;;;;;;0.00;0.00;;;16.80;96.70;;;;;;5091964;28;20450;-73
2023/05/03 04:33:35;;;;;;;0.13;0.00;;;16.80;96.70;;;;;;5091635;27;20569;-74
2023/05/03 04:36:08;;;;;;;0.00;0.00;;;16.90;96.70;;;;;;5090692;27;20051;-75
2023/05/03 04:38:40;;;;;;;0.00;0.00;;;16.90;96.70;;;;;;5092985;28;20108;-74
2023/05/03 04:41:10;;;;;;;0.00;0.00;;;16.90;96.70;;;;;;5088609;28;20142;-74
2023/05/03 04:43:41;;;;;;;0.85;0.00;;;16.90;96.70;;;;;;5069442;28;20052;-74
2023/05/03 04:46:11;;;;;;;0.00;0.00;;;16.90;96.70;;;;;;5087533;28;20424;-75
2023/05/03 04:48:39;;;;;;;0.35;0.00;;;16.90;96.70;;;;;;5091508;28;20071;-74
2023/05/03 04:51:09;;;;;;;0.00;0.00;;;17.00;96.70;;;;;;5071256;28;20102;-75
2023/05/03 04:53:40;;;;;;;0.08;0.00;;;17.00;96.70;;;;;;5088535;28;20047;-74
2023/05/03 04:56:15;;;;;;;0.13;0.00;;;17.00;96.70;;;;;;5070594;28;20054;-74
2023/05/03 04:58:44;;;;;;;0.00;0.00;;;16.90;96.70;;;;;;5085002;28;20031;-74
2023/05/03 05:01:15;;;;;;;0.10;0.00;;;16.90;96.70;;;;;;5086285;28;20147;-74
2023/05/03 05:03:45;;;;;;;0.17;0.00;;;17.00;96.70;;;;;;5087703;28;20097;-74
2023/05/03 05:06:19;;;;;;;0.00;0.00;;;17.00;96.70;;;;;;5073063;28;20526;-73
2023/05/03 05:08:50;;;;;;;0.75;0.00;;;17.00;96.70;;;;;;5067292;28;20051;-74
2023/05/03 05:11:21;;;;;;;0.43;0.00;;;17.00;96.70;;;;;;5066529;28;20043;-74
2023/05/03 05:13:50;;;;;;;0.10;0.00;;;17.00;96.70;;;;;;5084282;28;20051;-75
2023/05/03 05:16:19;;;;;;;0.05;0.00;;;17.00;96.70;;;;;;5083576;28;20044;-73
2023/05/03 05:18:51;;;;;;;0.20;0.00;;;17.00;96.70;;;;;;5083509;28;20067;-74
2023/05/03 05:21:24;;;;;;;2.17;0.00;;;17.00;96.70;;;;;;5087220;28;20130;-74
2023/05/03 05:23:54;;;;;;;0.20;0.00;;;17.10;96.70;;;;;;5080359;28;20076;-74
2023/05/03 05:26:23;;;;;;;0.17;0.00;;;17.10;96.70;;;;;;5085526;28;20034;-75
2023/05/03 05:28:52;;;;;;;2.55;0.00;;;17.10;96.70;;;;;;5066822;28;20050;-74
2023/05/03 05:31:21;;;;;;;0.03;0.00;;;17.20;96.70;;;;;;5083716;28;20032;-75
2023/05/03 05:33:50;;;;;;;0.00;0.00;;;17.20;96.70;;;;;;5079173;28;20483;-75
2023/05/03 05:36:19;;;;;;;0.35;0.00;;;17.10;96.70;;;;;;5084098;28;20043;-74
2023/05/03 05:38:50;;;;;;;1.30;0.00;;;17.20;96.70;;;;;;5090778;28;20058;-74
2023/05/03 05:41:20;;;;;;;0.13;0.00;;;17.20;96.70;;;;;;5088218;28;20040;-74
2023/05/03 05:43:49;;;;;;;1.45;0.00;;;17.30;96.70;;;;;;5069327;28;20054;-74
2023/05/03 05:46:20;;;;;;;0.00;0.00;;;17.30;96.70;;;;;;5096037;28;20059;-74
2023/05/03 05:48:51;;;;;;;0.00;0.00;;;17.30;96.70;;;;;;5082465;28;20075;-75
2023/05/03 05:51:20;;;;;;;0.15;0.00;;;17.30;96.70;;;;;;5090171;28;20051;-74
2023/05/03 05:53:48;;;;;;;0.40;0.10;;;17.30;96.70;;;;;;5066009;28;20059;-75
2023/05/03 05:56:20;;;;;;;0.05;0.00;;;17.30;96.70;;;;;;5085080;28;20044;-74
2023/05/03 05:58:50;;;;;;;0.55;0.00;;;17.30;96.70;;;;;;5095688;28;20044;-73
2023/05/03 06:01:19;;;;;;;0.00;0.00;;;17.40;96.70;;;;;;5092610;28;20072;-73
2023/05/03 06:03:47;;;;;;;0.20;0.00;;;17.40;96.70;;;;;;5090615;28;20075;-74
2023/05/03 06:06:16;;;;;;;0.10;0.00;;;17.40;96.70;;;;;;5084703;28;20055;-75
2023/05/03 06:08:48;;;;;;;1.33;0.00;;;17.40;96.70;;;;;;5100262;28;20035;-73
2023/05/03 06:11:17;;;;;;;1.55;0.00;;;17.40;96.70;;;;;;5085059;28;20572;-73
2023/05/03 06:13:47;;;;;;;0.00;0.00;;;17.50;96.70;;;;;;5081374;28;20055;-73
2023/05/03 06:16:18;;;;;;;0.00;0.00;;;17.50;96.70;;;;;;5083583;28;20046;-73
2023/05/03 06:18:46;;;;;;;0.10;0.10;;;17.50;96.70;;;;;;5082640;28;20040;-73
2023/05/03 06:21:15;;;;;;;0.68;0.00;;;17.60;96.70;;;;;;5086811;28;20837;-73
2023/05/03 06:23:44;;;;;;;0.77;0.10;;;17.60;96.70;;;;;;5086609;28;20101;-71
2023/05/03 06:26:12;;;;;;;0.32;0.00;;;17.70;96.70;;;;;;5085337;28;20052;-72
2023/05/03 06:28:41;;;;;;;1.33;0.20;;;17.70;96.70;;;;;;5078940;28;20080;-72
2023/05/03 06:31:12;;;;;;;0.40;0.00;;;17.80;96.70;;;;;;5083889;28;20071;-72
2023/05/03 06:33:41;;;;;;;1.20;0.20;;;17.80;96.70;;;;;;5083724;28;20047;-72
2023/05/03 06:36:10;;;;;;;0.57;0.10;;;17.80;96.70;;;;;;5077863;28;20044;-72
2023/05/03 06:38:39;;;;;;;3.13;0.28;;;17.90;96.70;;;;;;5094644;28;20059;-72
2023/05/03 06:41:08;;;;;;;0.77;0.10;;;18.00;96.70;;;;;;5102763;28;20520;-72
2023/05/03 06:43:36;;;;;;;0.55;0.05;;;18.10;96.70;;;;;;5100079;28;20071;-73
2023/05/03 06:46:06;;;;;;;0.88;0.10;;;18.20;96.70;;;;;;5094114;28;20063;-71
2023/05/03 06:48:36;;;;;;;0.85;0.00;;;18.20;96.70;;;;;;5103188;28;20242;-73
2023/05/03 06:51:05;;;;;;;0.52;0.00;;;18.20;96.70;;;;;;5083994;28;20070;-72
2023/05/03 06:53:33;;;;;;;0.52;0.15;;;18.30;96.70;;;;;;5094015;28;20071;-72
2023/05/03 06:56:04;;;;;;;0.17;0.00;;;18.30;96.70;;;;;;5099725;28;20039;-72
2023/05/03 06:58:32;;;;;;;0.98;0.20;;;18.30;96.70;;;;;;5093750;28;20032;-72
2023/05/03 07:01:02;;;;;;;0.55;0.17;;;18.40;96.70;;;;;;5075960;28;20050;-73
2023/05/03 07:03:30;;;;;;;0.10;0.03;;;18.50;96.70;;;;;;5101237;28;20047;-73
2023/05/03 07:06:00;;;;;;;0.05;0.05;;;18.60;96.70;;;;;;5103537;28;20047;-73
2023/05/03 07:08:30;;;;;;;2.85;0.05;;;18.70;96.70;;;;;;5095956;28;20055;-72
2023/05/03 07:10:58;;;;;;;31.83;2.25;;;18.80;96.70;;;;;;5105463;28;20162;-72
2023/05/03 07:13:27;;;;;;;1.70;0.57;;;18.90;96.70;;;;;;5105996;28;20039;-73
2023/05/03 07:15:55;;;;;;;0.70;0.10;;;18.90;96.70;;;;;;5099204;28;20044;-72
2023/05/03 07:18:24;;;;;;;4.38;0.30;;;19.00;96.70;;;;;;5104102;28;20043;-71
2023/05/03 07:20:52;;;;;;;0.77;0.30;;;19.00;96.70;;;;;;5100460;28;20093;-72
2023/05/03 07:23:23;;;;;;;0.00;0.00;;;19.10;96.70;;;;;;5092609;28;20127;-72
2023/05/03 07:25:52;;;;;;;1.77;0.13;;;19.10;96.70;;;;;;5100117;28;20043;-72
2023/05/03 07:28:22;;;;;;;0.10;0.00;;;19.10;96.70;;;;;;5106254;28;20043;-72
2023/05/03 07:30:51;;;;;;;0.28;0.10;;;19.20;96.70;;;;;;5105009;28;20040;-72
2023/05/03 07:33:19;;;;;;;0.20;0.10;;;19.30;96.70;;;;;;5105882;28;20130;-72
2023/05/03 07:35:49;;;;;;;0.20;0.10;;;19.40;96.70;;;;;;5106513;28;20067;-72
2023/05/03 07:38:17;;;;;;;0.60;0.20;;;19.50;96.70;;;;;;5087857;28;20059;-72
2023/05/03 07:40:47;;;;;;;0.35;0.20;;;19.50;96.70;;;;;;5104752;28;20058;-72
2023/05/03 07:43:17;;;;;;;1.27;0.30;;;19.60;96.70;;;;;;5079113;28;20145;-72
2023/05/03 07:45:45;;;;;;;1.25;0.20;;;19.80;96.70;;;;;;5097356;28;20044;-72
2023/05/03 07:48:13;;;;;;;0.65;0.20;;;19.90;96.70;;;;;;5096346;28;20043;-72
2023/05/03 07:50:42;;;;;;;0.10;0.10;;;19.90;96.70;;;;;;5101503;28;20584;-72
2023/05/03 07:53:11;;;;;;;0.40;0.30;;;19.90;96.70;;;;;;5097154;28;20047;-72
2023/05/03 07:55:39;;;;;;;0.35;0.20;;;19.90;96.70;;;;;;5098709;28;20516;-72
2023/05/03 07:58:09;;;;;;;0.30;0.30;;;19.90;96.70;;;;;;5102412;28;20040;-72
2023/05/03 08:00:37;;;;;;;1.20;0.20;;;20.00;96.70;;;;;;5094248;28;20056;-72
2023/05/03 08:03:05;;;;;;;1.65;0.40;;;20.20;96.70;;;;;;5105732;28;20039;-72
2023/05/03 08:05:35;;;;;;;1.45;0.30;;;20.20;96.70;;;;;;5104371;28;20089;-71
2023/05/03 08:08:04;;;;;;;0.50;0.30;;;20.20;96.70;;;;;;5103413;28;20094;-72
2023/05/03 08:10:36;;;;;;;0.30;0.20;;;20.20;96.70;;;;;;5104080;28;20491;-72
2023/05/03 08:13:05;;;;;;;0.73;0.30;;;20.10;96.70;;;;;;5093916;28;20112;-72
2023/05/03 08:15:34;;;;;;;1.33;0.22;;;20.10;96.70;;;;;;5094777;28;20039;-72
2023/05/03 08:18:03;;;;;;;0.98;0.10;;;20.00;96.70;;;;;;5080859;28;20043;-72
2023/05/03 08:20:35;;;;;;;0.63;0.20;;;19.90;96.70;;;;;;5099532;28;20044;-72
2023/05/03 08:23:03;;;;;;;0.20;0.17;;;19.80;96.70;;;;;;5100203;28;20118;-72
2023/05/03 08:25:31;;;;;;;1.75;0.30;;;19.70;96.70;;;;;;5085154;28;20048;-72
2023/05/03 08:27:59;;;;;;;0.80;0.30;;;19.60;96.70;;;;;;5095852;28;20067;-72
2023/05/03 08:30:28;;;;;;;1.10;0.30;;;19.60;96.70;;;;;;5105842;28;20043;-72
2023/05/03 08:32:57;;;;;;;1.05;0.30;;;19.50;96.70;;;;;;5103528;28;20090;-72
2023/05/03 08:35:26;;;;;;;1.33;0.30;;;19.50;96.70;;;;;;5104703;28;20075;-72
2023/05/03 08:37:55;;;;;;;0.45;0.30;;;19.40;96.70;;;;;;5107082;27;20465;-73
2023/05/03 08:40:25;;;;;;;0.38;0.20;;;19.40;96.70;;;;;;5109305;27;20165;-72
2023/05/03 08:42:57;;;;;;;1.15;0.40;;;19.20;96.70;;;;;;5113229;27;20066;-72
2023/05/03 08:45:25;;;;;;;2.83;0.30;;;19.20;96.70;;;;;;5101363;27;20521;-72
2023/05/03 08:47:54;;;;;;;1.08;0.30;;;19.20;96.70;;;;;;5111675;27;20492;-72
2023/05/03 08:50:24;;;;;;;3.10;0.30;;;19.10;96.70;;;;;;5105183;27;20050;-71
2023/05/03 08:52:52;;;;;;;0.28;0.20;;;19.00;96.70;;;;;;5105115;27;20092;-72
2023/05/03 08:55:21;;;;;;;0.17;0.13;;;19.00;96.70;;;;;;5098704;27;20043;-71
2023/05/03 08:57:49;;;;;;;0.90;0.20;;;19.00;96.70;;;;;;5106846;27;20504;-72
2023/05/03 09:00:18;;;;;;;0.93;0.38;;;19.00;96.70;;;;;;5107118;27;20035;-72
2023/05/03 09:02:48;;;;;;;0.35;0.10;;;19.10;96.70;;;;;;5107678;27;20039;-71
2023/05/03 09:05:37;;;;;;;1.27;0.30;;;19.20;96.70;;;;;;5113171;27;20043;-72
2023/05/03 09:08:08;;;;;;;0.38;0.22;;;19.30;96.70;;;;;;5105771;27;20051;-73
2023/05/03 09:10:40;;;;;;;0.30;0.30;;;19.30;96.70;;;;;;5094469;27;20075;-73
2023/05/03 09:13:09;;;;;;;0.47;0.25;;;19.40;96.70;;;;;;5105748;27;20066;-73
2023/05/03 09:15:37;;;;;;;0.50;0.40;;;19.50;96.70;;;;;;5107428;27;20509;-73
2023/05/03 09:18:15;;;;;;;0.43;0.40;;;19.50;96.70;;;;;;5101917;28;20447;-73
2023/05/03 09:20:50;;;;;;;1.20;0.40;;;19.50;96.70;;;;;;5102707;27;20801;-72
2023/05/03 09:23:28;;;;;;;0.98;0.32;;;19.60;96.70;;;;;;5105544;27;20127;-72
2023/05/03 09:25:57;;;;;;;2.00;0.30;;;19.70;96.70;;;;;;5114619;27;20055;-72
2023/05/03 09:28:26;;;;;;;1.15;0.60;;;19.80;96.70;;;;;;5104569;27;20047;-72
2023/05/03 09:31:08;;;;;;;0.50;0.50;;;19.80;96.70;;;;;;5111789;27;20067;-72
2023/05/03 09:33:39;;;;;;;0.50;0.30;;;19.90;96.70;;;;;;5106709;27;20047;-72
2023/05/03 09:36:10;;;;;;;1.98;0.40;;;19.90;96.70;;;;;;5105242;27;20075;-72
2023/05/03 09:38:38;;;;;;;0.40;0.40;;;19.80;96.70;;;;;;5114630;27;20086;-72
2023/05/03 09:41:07;;;;;;;1.83;0.43;;;20.00;96.70;;;;;;5105873;27;20040;-72
2023/05/03 09:43:35;;;;;;;0.80;0.35;;;20.10;96.70;;;;;;5109172;27;20047;-72
2023/05/03 09:46:10;;;;;;;1.13;0.30;;;20.20;96.70;;;;;;5104894;27;20039;-72
2023/05/03 09:48:39;;;;;;;0.93;0.63;;;20.20;96.70;;;;;;5100992;27;20054;-72
2023/05/03 09:51:10;;;;;;;0.40;0.40;;;20.20;96.70;;;;;;5090533;27;20427;-72
2023/05/03 09:53:40;;;;;;;0.40;0.40;;;20.40;96.70;;;;;;5105673;27;20043;-72
2023/05/03 09:56:12;;;;;;;0.40;0.40;;;20.50;96.70;;;;;;5106152;27;20502;-72
2023/05/03 09:58:42;;;;;;;0.60;0.40;;;20.50;96.70;;;;;;5096211;27;20043;-72
2023/05/03 10:01:10;;;;;;;5.25;0.95;;;20.40;96.70;;;;;;5099225;27;20035;-71
2023/05/03 10:03:40;;;;;;;2.25;0.57;;;20.40;96.70;;;;;;5122899;27;20047;-71
2023/05/03 10:06:21;;;;;;;3.03;0.50;;;20.50;96.70;;;;;;5123678;27;20047;-72
2023/05/03 10:08:54;;;;;;;1.38;0.60;;;20.70;96.70;;;;;;5103495;27;20134;-72
2023/05/03 10:11:26;;;;;;;0.60;0.40;;;20.80;96.70;;;;;;5095053;28;20046;-72
2023/05/03 10:13:55;;;;;;;1.10;0.40;;;20.90;96.70;;;;;;5080190;28;20048;-72
2023/05/03 10:16:26;;;;;;;1.77;0.30;;;21.20;96.70;;;;;;5111419;27;20039;-72
2023/05/03 10:19:03;;;;;;;0.43;0.30;;;21.20;96.70;;;;;;5113807;27;20627;-72
2023/05/03 10:21:47;;;;;;;1.23;0.50;;;21.30;96.70;;;;;;5094939;28;20043;-72
2023/05/03 10:24:16;;;;;;;0.88;0.50;;;21.30;96.70;;;;;;5101702;27;20244;-72
2023/05/03 10:26:46;;;;;;;0.93;0.30;;;21.30;96.70;;;;;;5095719;28;20059;-72
2023/05/03 10:29:47;;;;;;;1.30;0.40;;;21.20;96.70;;;;;;5108791;27;20512;-72
2023/05/03 10:32:33;;;;;;;1.30;0.70;;;21.20;96.70;;;;;;5102251;27;20085;-72
2023/05/03 10:35:04;;;;;;;2.65;0.47;;;21.20;96.70;;;;;;5094412;27;20051;-72
2023/05/03 10:37:35;;;;;;;0.82;0.40;;;21.30;96.70;;;;;;5098015;27;20058;-72
2023/05/03 10:40:09;;;;;;;0.50;0.43;;;21.40;96.70;;;;;;5123656;27;20043;-72
2023/05/03 10:42:37;;;;;;;0.40;0.40;;;21.50;96.70;;;;;;5093693;28;20164;-72
2023/05/03 10:45:08;;;;;;;0.40;0.40;;;21.70;96.70;;;;;;5104884;28;20039;-73
2023/05/03 10:47:36;;;;;;;1.10;0.40;;;21.90;96.70;;;;;;5119811;27;20044;-69
2023/05/03 10:50:25;;;;;;;1.27;0.30;;;22.00;96.70;;;;;;5104088;28;20115;-72
2023/05/03 10:52:57;;;;;;;1.85;0.60;;;22.10;96.70;;;;;;5097480;28;20044;-72
2023/05/03 10:55:25;;;;;;;1.98;0.40;;;22.10;96.70;;;;;;5108845;28;20411;-71
2023/05/03 10:57:56;;;;;;;1.45;0.47;;;22.20;96.70;;;;;;5117251;28;20617;-71
2023/05/03 11:00:32;;;;;;;0.75;0.30;;;22.20;96.70;;;;;;5096085;27;20396;-72
2023/05/03 11:03:09;;;;;;;;;;;22.10;96.70;;;;;;5106191;28;20470;-71
2023/05/03 11:05:38;;;;;;;0.87;0.43;;;22.20;96.70;;;;;;5104066;28;20015;-71
2023/05/03 11:08:19;;;;;;;0.50;0.30;;;22.10;96.70;;;;;;5116906;28;20291;-71
2023/05/03 11:10:48;;;;;;;1.08;0.30;;;22.40;96.70;;;;;;5096172;27;20488;-72
2023/05/03 11:13:16;;;;;;;0.55;0.30;;;22.40;96.70;;;;;;5103015;28;20049;-71
2023/05/03 11:15:45;;;;;;;2.58;0.40;;;22.60;96.70;;;;;;5100265;28;20143;-72
2023/05/03 11:18:15;;;;;;;0.25;0.20;;;22.70;96.70;;;;;;5114573;28;20058;-72
2023/05/03 11:20:44;;;;;;;1.60;0.20;;;23.00;96.70;;;;;;5102386;28;20050;-71
2023/05/03 11:23:14;;;;;;;1.40;0.25;;;23.00;96.70;;;;;;5107014;28;20127;-71
2023/05/03 11:25:42;;;;;;;0.85;0.20;;;22.90;96.70;;;;;;5110507;27;20076;-71
2023/05/03 11:28:10;;;;;;;1.17;0.20;;;22.70;96.70;;;;;;5109395;28;20031;-71
2023/05/03 11:30:38;;;;;;;0.55;0.20;;;22.70;96.70;;;;;;5108785;28;20043;-71
2023/05/03 11:33:06;;;;;;;0.15;0.13;;;22.70;96.70;;;;;;5111654;28;20044;-71
2023/05/03 11:35:34;;;;;;;0.25;0.17;;;22.90;96.70;;;;;;5109397;28;20075;-74
2023/05/03 11:38:03;;;;;;;1.02;0.28;;;22.80;96.70;;;;;;5122272;28;20043;-74
2023/05/03 11:40:32;;;;;;;1.33;0.28;;;22.80;96.70;;;;;;5097189;28;20058;-72
2023/05/03 11:43:01;;;;;;;0.20;0.20;;;23.00;96.70;;;;;;5107835;28;20039;-72
2023/05/03 11:45:39;;;;;;;1.58;0.20;;;23.10;96.70;;;;;;5104260;28;20057;-72
2023/05/03 11:48:07;;;;;;;0.30;0.20;;;23.20;96.70;;;;;;5109996;28;20503;-72
2023/05/03 11:50:50;;;;;;;3.15;0.30;;;23.30;96.70;;;;;;5097576;27;20541;-72
2023/05/03 11:53:20;;;;;;;0.38;0.20;;;23.40;96.70;;;;;;5090435;27;20120;-72
2023/05/03 11:55:52;;;;;;;0.50;0.30;;;23.30;96.70;;;;;;5113610;27;20127;-72
2023/05/03 11:58:26;;;;;;;0.30;0.20;;;23.20;96.70;;;;;;5124057;27;20476;-72
2023/05/03 12:00:57;;;;;;;1.05;0.20;;;23.20;96.70;;;;;;5125601;27;20106;-72
2023/05/03 12:03:29;;;;;;;0.10;0.10;;;23.20;96.70;;;;;;5107836;27;20047;-72
2023/05/03 12:06:00;;;;;;;0.30;0.30;;;23.50;96.70;;;;;;5107404;27;20477;-72
2023/05/03 12:08:31;;;;;;;1.73;0.60;;;23.70;96.70;;;;;;5115897;27;20039;-72
2023/05/03 12:11:05;;;;;;;0.50;0.20;;;23.80;96.70;;;;;;5107132;27;20063;-73
2023/05/03 12:13:37;;;;;;;0.30;0.30;;;23.80;96.70;;;;;;5122063;27;20066;-72
2023/05/03 12:16:08;;;;;;;1.73;0.30;;;23.60;96.70;;;;;;5071601;28;20058;-72
2023/05/03 12:18:46;;;;;;;0.70;0.25;;;23.70;96.70;;;;;;5122767;27;20050;-73
2023/05/03 12:21:15;;;;;;;1.17;0.32;;;23.90;96.70;;;;;;5118771;27;20039;-74
2023/05/03 12:23:48;;;;;;;1.10;0.30;;;23.80;96.70;;;;;;5115484;27;20491;-72
2023/05/03 12:26:19;;;;;;;1.55;0.20;;;23.90;96.70;;;;;;5096621;28;20043;-73
2023/05/03 12:28:48;;;;;;;0.30;0.22;;;23.90;96.70;;;;;;5102390;27;20050;-72
2023/05/03 12:31:16;;;;;;;1.48;0.10;;;24.00;96.70;;;;;;5114411;27;20040;-72
2023/05/03 12:33:45;;;;;;;0.20;0.20;;;24.20;96.70;;;;;;5107010;27;20112;-72
2023/05/03 12:36:40;;;;;;;0.40;0.30;;;24.30;96.70;;;;;;5120288;27;20073;-72
2023/05/03 12:39:12;;;;;;;0.30;0.30;;;24.30;96.70;;;;;;5089434;28;20064;-72
2023/05/03 12:41:44;;;;;;;0.68;0.30;;;24.40;96.70;;;;;;5083843;28;20044;-72
2023/05/03 12:44:16;;;;;;;0.85;0.40;;;24.50;96.70;;;;;;5077192;28;20155;-72
2023/05/03 12:46:44;;;;;;;1.55;0.28;;;24.20;96.70;;;;;;5076323;28;20449;-72
2023/05/03 12:49:13;;;;;;;0.50;0.20;;;24.20;96.70;;;;;;5072654;28;20040;-72
2023/05/03 12:51:42;;;;;;;3.35;0.77;;;24.40;96.70;;;;;;5064686;28;20097;-72
2023/05/03 12:54:21;;;;;;;1.20;0.30;;;24.50;96.70;;;;;;5073526;28;20044;-72
2023/05/03 12:56:52;;;;;;;0.77;0.30;;;24.60;96.70;;;;;;5078497;28;20129;-72
2023/05/03 12:59:22;;;;;;;0.57;0.20;;;24.60;96.70;;;;;;5073345;28;20075;-73
2023/05/03 13:01:53;;;;;;;1.13;0.30;;;24.40;96.70;;;;;;5072430;28;20669;-72
2023/05/03 13:04:24;;;;;;;2.47;0.20;;;24.50;96.70;;;;;;5081652;28;20044;-72
2023/05/03 13:06:55;;;;;;;1.38;0.30;;;24.40;96.70;;;;;;5075775;28;20123;-73
2023/05/03 13:09:28;;;;;;;0.90;0.30;;;24.40;96.70;;;;;;5066001;28;20055;-73
2023/05/03 13:12:19;;;;;;;1.65;0.20;;;24.30;96.70;;;;;;5082582;28;20101;-73
2023/05/03 13:14:48;;;;;;;1.20;0.25;;;24.50;96.70;;;;;;5084445;28;20044;-74
2023/05/03 13:17:19;;;;;;;2.05;0.20;;;24.70;96.70;;;;;;5072591;28;20050;-74
2023/05/03 13:19:48;;;;;;;1.95;0.30;;;24.80;96.70;;;;;;5074515;28;20581;-73
2023/05/03 13:22:16;;;;;;;1.48;0.30;;;24.80;96.70;;;;;;5067691;28;20207;-74
2023/05/03 13:24:46;;;;;;;0.40;0.30;;;25.00;96.70;;;;;;5065287;28;20128;-74
2023/05/03 13:27:15;;;;;;;0.50;0.20;;;25.10;96.70;;;;;;5073255;28;20044;-74
2023/05/03 13:29:45;;;;;;;1.85;0.30;;;25.20;96.70;;;;;;5072098;28;20074;-74
2023/05/03 13:32:16;;;;;;;0.60;0.30;;;25.40;96.70;;;;;;5065863;28;20040;-74
2023/05/03 13:34:44;;;;;;;0.95;0.20;;;25.50;96.70;;;;;;5063830;28;20502;-74
2023/05/03 13:37:17;;;;;;;0.25;0.10;;;25.60;96.70;;;;;;5074179;28;20063;-74
2023/05/03 13:39:45;;;;;;;0.22;0.17;;;25.70;96.70;;;;;;5106133;27;20122;-74
2023/05/03 13:42:14;;;;;;;0.52;0.20;;;25.80;96.70;;;;;;5117831;27;20043;-73
2023/05/03 13:44:46;;;;;;;1.52;0.40;;;25.80;96.70;;;;;;5119760;27;20039;-74
2023/05/03 13:47:15;;;;;;;1.50;0.40;;;25.80;96.70;;;;;;5087365;27;20687;-73
2023/05/03 13:49:43;;;;;;;0.28;0.20;;;26.10;96.70;;;;;;5105370;27;20044;-74
2023/05/03 13:52:11;;;;;;;2.85;0.30;;;26.20;96.70;;;;;;5104364;27;20047;-74
2023/05/03 13:54:41;;;;;;;0.60;0.10;;;26.50;96.70;;;;;;5102215;28;20044;-73
2023/05/03 13:57:09;;;;;;;1.67;0.50;;;26.70;96.70;;;;;;5118867;27;20047;-74
2023/05/03 13:59:37;;;;;;;0.57;0.28;;;26.80;96.70;;;;;;5097456;27;20533;-74
2023/05/03 14:02:07;;;;;;;0.20;0.17;;;26.90;96.70;;;;;;5105698;27;20039;-74
2023/05/03 14:04:35;;;;;;;0.32;0.20;;;27.10;96.70;;;;;;5103837;27;20047;-74
2023/05/03 14:07:04;;;;;;;2.40;0.32;;;27.50;96.70;;;;;;5095124;28;20051;-74
2023/05/03 14:09:37;;;;;;;1.65;0.20;;;27.80;96.70;;;;;;5104568;28;20135;-73
2023/05/03 14:12:06;;;;;;;2.15;0.22;;;28.00;96.70;;;;;;5104989;27;20057;-73
2023/05/03 14:14:35;;;;;;;0.77;0.20;;;28.00;96.70;;;;;;5120875;27;20080;-74
2023/05/03 14:17:03;;;;;;;1.30;0.20;;;27.90;96.70;;;;;;5110228;27;20071;-74
2023/05/03 14:19:36;;;;;;;2.72;0.68;;;28.00;96.70;;;;;;5104330;27;20430;-74
2023/05/03 14:22:04;;;;;;;0.70;0.20;;;28.30;96.70;;;;;;5118733;27;20043;-73
2023/05/03 14:24:32;;;;;;;1.85;0.20;;;28.40;96.70;;;;;;5108424;27;20038;-74
2023/05/03 14:27:01;;;;;;;0.90;0.13;;;28.30;96.70;;;;;;5102862;27;20069;-74
2023/05/03 14:29:30;;;;;;;1.17;0.30;;;28.20;96.70;;;;;;5101189;27;20039;-74
2023/05/03 14:31:58;;;;;;;1.25;0.52;;;28.40;96.70;;;;;;5095092;27;20158;-73
2023/05/03 14:34:27;;;;;;;0.60;0.20;;;28.70;96.70;;;;;;5098894;27;20299;-73
2023/05/03 14:36:57;;;;;;;0.85;0.20;;;28.90;96.70;;;;;;5105086;27;20051;-73
2023/05/03 14:39:26;;;;;;;0.30;0.20;;;29.30;96.70;;;;;;5106504;27;20500;-73
2023/05/03 14:41:54;;;;;;;2.42;0.32;;;29.50;96.70;;;;;;5096308;28;20065;-73
2023/05/03 14:44:23;;;;;;;0.50;0.30;;;29.70;96.70;;;;;;5110676;27;20481;-74
2023/05/03 14:46:52;;;;;;;0.50;0.30;;;29.80;96.70;;;;;;5113997;27;20054;-74
2023/05/03 14:49:20;;;;;;;0.52;0.20;;;29.80;96.70;;;;;;5124095;27;20506;-74
2023/05/03 14:51:48;;;;;;;1.20;0.25;;;30.10;96.70;;;;;;5096421;27;20453;-74
2023/05/03 14:54:18;;;;;;;1.55;0.30;;;30.00;96.70;;;;;;5094858;28;20404;-74
2023/05/03 14:56:46;;;;;;;1.05;0.28;;;30.00;96.70;;;;;;5086316;28;20115;-74
2023/05/03 14:59:15;;;;;;;1.45;0.32;;;30.10;96.70;;;;;;5102273;28;20039;-71
2023/05/03 15:01:43;;;;;;;0.40;0.30;;;30.20;96.70;;;;;;5101929;28;20043;-70
2023/05/03 15:04:11;;;;;;;0.73;0.20;;;30.40;96.70;;;;;;5107832;28;20063;-71
2023/05/03 15:06:40;;;;;;;2.13;0.30;;;30.40;96.70;;;;;;5103948;28;20058;-71
2023/05/03 15:09:10;;;;;;;0.52;0.30;;;30.70;96.70;;;;;;5103905;28;20123;-71
2023/05/03 15:11:40;;;;;;;1.15;0.68;;;30.80;96.70;;;;;;5102565;28;20132;-71
2023/05/03 15:14:08;;;;;;;0.47;0.30;;;30.70;96.70;;;;;;5107203;28;20477;-71
2023/05/03 15:16:37;;;;;;;0.63;0.30;;;30.80;96.70;;;;;;5093866;28;20039;-71